Time;durP1;ratioP1;P1;durP2;ratioP2;P2;SDS_P1;SDS_P2;PMS_P1;PMS_P2;Temp;Humidity;BMP_temperature;BMP_pressure;BME280_temperature;BME280_humidity;BME280_pressure;Samples;Min_cycle;Max_cycle;Signal;HPM_P1;HPM_P2
2021/12/27 00:00:09;;;;;;;11.52;10.35;;;;;21.90;99170.00;;;;2084224;28;20251;-46
2021/12/27 00:01:10;;;;;;;12.43;11.20;;;;;21.90;99168.00;;;;2084339;28;20212;-47
2021/12/27 00:02:10;;;;;;;11.70;10.60;;;;;21.90;99169.00;;;;2087544;28;20208;-46
2021/12/27 00:03:11;;;;;;;11.27;10.27;;;;;21.90;99170.00;;;;2087399;28;20225;-46
2021/12/27 00:04:11;;;;;;;11.80;10.60;;;;;21.90;99169.00;;;;2087056;28;20229;-46
2021/12/27 00:05:12;;;;;;;11.17;10.17;;;;;21.80;99172.00;;;;2087360;28;20217;-46
2021/12/27 00:06:12;;;;;;;11.20;10.00;;;;;21.80;99173.00;;;;2087225;28;20227;-46
2021/12/27 00:07:14;;;;;;;10.23;9.33;;;;;21.80;99169.00;;;;2086335;28;20835;-46
2021/12/27 00:08:15;;;;;;;10.57;9.57;;;;;21.80;99164.00;;;;2086703;28;20554;-46
2021/12/27 00:09:15;;;;;;;10.63;9.63;;;;;21.80;99167.00;;;;2086656;28;20212;-46
2021/12/27 00:10:17;;;;;;;10.73;9.63;;;;;21.80;99167.00;;;;2086902;28;20239;-46
2021/12/27 00:11:17;;;;;;;10.63;9.55;;;;;21.80;99163.00;;;;2084267;28;20705;-46
2021/12/27 00:12:17;;;;;;;10.53;9.43;;;;;21.80;99169.00;;;;2087101;28;20296;-45
2021/12/27 00:13:18;;;;;;;10.80;9.70;;;;;21.80;99159.00;;;;2087331;28;20209;-46
2021/12/27 00:14:19;;;;;;;9.85;8.95;;;;;21.80;99157.00;;;;2087053;28;20345;-46
2021/12/27 00:15:19;;;;;;;10.80;9.70;;;;;21.80;99160.00;;;;2077426;28;20310;-46
2021/12/27 00:16:20;;;;;;;9.47;8.57;;;;;21.80;99158.00;;;;2086385;28;20209;-46
2021/12/27 00:17:20;;;;;;;9.93;9.03;;;;;21.80;99161.00;;;;2083501;28;20220;-46
2021/12/27 00:18:20;;;;;;;9.27;8.43;;;;;21.80;99165.00;;;;2087105;28;20204;-45
2021/12/27 00:19:21;;;;;;;9.23;8.37;;;;;21.80;99157.00;;;;2087595;28;20216;-46
2021/12/27 00:20:21;;;;;;;9.23;8.33;;;;;21.80;99160.00;;;;2087167;28;20216;-46
2021/12/27 00:21:21;;;;;;;9.43;8.53;;;;;21.80;99156.00;;;;2083673;28;20221;-46
2021/12/27 00:22:22;;;;;;;9.10;8.20;;;;;21.70;99159.00;;;;2087140;28;20223;-46
2021/12/27 00:23:23;;;;;;;9.73;8.80;;;;;21.70;99149.00;;;;2086648;28;20256;-46
2021/12/27 00:24:23;;;;;;;8.50;7.70;;;;;21.70;99157.00;;;;2086379;28;20525;-45
2021/12/27 00:25:23;;;;;;;9.40;8.50;;;;;21.70;99157.00;;;;2087078;28;20600;-46
2021/12/27 00:26:24;;;;;;;9.33;8.40;;;;;21.70;99150.00;;;;2084342;28;20643;-46
2021/12/27 00:27:25;;;;;;;8.80;8.00;;;;;21.80;99159.00;;;;2086956;28;20232;-46
2021/12/27 00:28:25;;;;;;;8.75;7.85;;;;;21.70;99158.00;;;;2087112;28;20227;-46
2021/12/27 00:29:26;;;;;;;7.93;7.23;;;;;21.70;99149.00;;;;2087338;28;21112;-46
2021/12/27 00:30:26;;;;;;;8.97;8.17;;;;;21.70;99149.00;;;;2085440;28;20259;-45
2021/12/27 00:31:26;;;;;;;8.30;7.57;;;;;21.70;99154.00;;;;2086342;28;20213;-45
2021/12/27 00:32:27;;;;;;;7.70;7.00;;;;;21.70;99149.00;;;;2084925;28;20304;-45
2021/12/27 00:33:27;;;;;;;7.10;6.50;;;;;21.70;99158.00;;;;2078818;28;20209;-46
2021/12/27 00:34:27;;;;;;;8.43;7.63;;;;;21.70;99149.00;;;;2078808;28;20209;-46
2021/12/27 00:35:29;;;;;;;7.53;6.83;;;;;21.70;99147.00;;;;2078617;28;20206;-46
2021/12/27 00:36:30;;;;;;;7.57;6.88;;;;;21.70;99152.00;;;;2076038;28;20224;-46
2021/12/27 00:37:30;;;;;;;7.17;6.50;;;;;21.70;99155.00;;;;2086414;28;20267;-45
2021/12/27 00:38:30;;;;;;;8.23;7.50;;;;;21.70;99153.00;;;;2084299;28;20220;-46
2021/12/27 00:39:31;;;;;;;7.20;6.50;;;;;21.70;99152.00;;;;2086132;28;20213;-46
2021/12/27 00:40:31;;;;;;;7.30;6.70;;;;;21.70;99153.00;;;;2086133;28;20216;-45
2021/12/27 00:41:31;;;;;;;7.53;6.83;;;;;21.60;99148.00;;;;2086941;28;20323;-46
2021/12/27 00:42:32;;;;;;;6.50;5.90;;;;;21.60;99152.00;;;;2087303;28;20705;-46
2021/12/27 00:43:32;;;;;;;7.20;6.60;;;;;21.60;99146.00;;;;2086970;28;20221;-45
2021/12/27 00:44:32;;;;;;;6.80;6.20;;;;;21.60;99147.00;;;;2087479;28;20245;-46
2021/12/27 00:45:33;;;;;;;6.60;6.00;;;;;21.60;99141.00;;;;2087476;28;20228;-45
2021/12/27 00:46:33;;;;;;;6.47;5.87;;;;;21.60;99140.00;;;;2084965;28;20307;-45
2021/12/27 00:47:33;;;;;;;7.13;6.43;;;;;21.60;99145.00;;;;2087383;28;20274;-45
2021/12/27 00:48:34;;;;;;;6.47;5.87;;;;;21.60;99137.00;;;;2087602;28;20225;-46
2021/12/27 00:49:34;;;;;;;6.90;6.30;;;;;21.60;99144.00;;;;2085932;28;20220;-46
2021/12/27 00:50:34;;;;;;;6.80;6.20;;;;;21.60;99145.00;;;;2086507;28;20634;-45
2021/12/27 00:51:35;;;;;;;5.80;5.20;;;;;21.60;99135.00;;;;2087184;28;20216;-45
2021/12/27 00:52:35;;;;;;;6.60;6.00;;;;;21.60;99138.00;;;;2086718;28;20213;-46
2021/12/27 00:53:36;;;;;;;6.10;5.60;;;;;21.60;99137.00;;;;2087073;28;20339;-46
2021/12/27 00:54:36;;;;;;;6.47;5.87;;;;;21.60;99129.00;;;;2086494;28;20764;-45
2021/12/27 00:55:37;;;;;;;5.77;5.27;;;;;21.50;99130.00;;;;2086913;28;20221;-45
2021/12/27 00:56:37;;;;;;;6.27;5.70;;;;;21.50;99135.00;;;;2086959;28;20266;-45
2021/12/27 00:57:37;;;;;;;6.27;5.67;;;;;21.50;99126.00;;;;2086542;28;20705;-45
2021/12/27 00:58:38;;;;;;;5.70;5.20;;;;;21.50;99126.00;;;;2087021;28;20255;-45
2021/12/27 00:59:38;;;;;;;7.07;6.37;;;;;21.60;99127.00;;;;2085791;28;20587;-45
2021/12/27 01:00:38;;;;;;;6.30;5.70;;;;;21.60;99126.00;;;;2086436;28;20880;-45
2021/12/27 01:01:39;;;;;;;6.13;5.63;;;;;21.50;99123.00;;;;2087485;28;22757;-45
2021/12/27 01:02:39;;;;;;;5.67;5.13;;;;;21.50;99121.00;;;;2085410;28;20224;-46
2021/12/27 01:03:39;;;;;;;6.10;5.60;;;;;21.50;99127.00;;;;2078735;28;20225;-46
2021/12/27 01:04:40;;;;;;;5.67;5.17;;;;;21.50;99127.00;;;;2078703;28;20221;-46
2021/12/27 01:05:40;;;;;;;5.73;5.23;;;;;21.50;99123.00;;;;2079297;28;20304;-46
2021/12/27 01:06:40;;;;;;;5.57;5.07;;;;;21.50;99128.00;;;;2079151;28;20221;-45
2021/12/27 01:07:41;;;;;;;5.50;5.03;;;;;21.50;99127.00;;;;2079037;28;20225;-46
2021/12/27 01:08:41;;;;;;;5.60;5.10;;;;;21.50;99134.00;;;;2079153;28;20247;-45
2021/12/27 01:11:11;;;;;;;5.68;5.07;;;;;21.50;99130.00;;;;2083321;28;21015;-46
2021/12/27 01:14:28;;;;;;;5.40;4.90;;;;;21.50;99127.00;;;;2086120;28;20335;-45
2021/12/27 01:16:41;;;;;;;5.05;4.63;;;;;21.40;99129.00;;;;2086838;28;20212;-46
2021/12/27 01:17:43;;;;;;;5.47;4.97;;;;;21.40;99135.00;;;;2086500;28;21110;-46
2021/12/27 01:18:47;;;;;;;4.82;4.43;;;;;21.40;99131.00;;;;2086908;28;20216;-45
2021/12/27 01:19:48;;;;;;;4.53;4.07;;;;;21.40;99132.00;;;;2086599;28;20216;-46
2021/12/27 01:20:48;;;;;;;5.20;4.73;;;;;21.40;99132.00;;;;2081073;28;20317;-46
2021/12/27 01:21:49;;;;;;;4.50;4.10;;;;;21.40;99130.00;;;;2075233;28;20226;-45
2021/12/27 01:22:50;;;;;;;4.83;4.40;;;;;21.40;99128.00;;;;2077812;28;20213;-45
2021/12/27 01:23:51;;;;;;;4.75;4.35;;;;;21.40;99132.00;;;;2078072;28;20268;-45
2021/12/27 01:24:51;;;;;;;4.78;3.92;;;;;21.40;99134.00;;;;2077782;28;21043;-46
2021/12/27 01:25:51;;;;;;;5.07;4.57;;;;;21.40;99145.00;;;;2078576;28;20221;-45
2021/12/27 01:26:52;;;;;;;4.73;4.33;;;;;21.40;99130.00;;;;2067164;28;20240;-45
2021/12/27 01:27:52;;;;;;;5.53;5.03;;;;;21.40;99138.00;;;;2077666;28;20694;-46
2021/12/27 01:28:53;;;;;;;4.77;4.37;;;;;21.40;99128.00;;;;2078266;28;20626;-45
2021/12/27 01:29:54;;;;;;;4.50;4.10;;;;;21.40;99144.00;;;;2078601;28;20756;-46
2021/12/27 01:30:54;;;;;;;4.13;3.80;;;;;21.40;99138.00;;;;2077153;28;20206;-45
2021/12/27 01:31:54;;;;;;;4.10;3.80;;;;;21.30;99134.00;;;;2078743;28;20654;-45
2021/12/27 01:32:59;;;;;;;4.20;3.80;;;;;21.30;99134.00;;;;2078579;28;20514;-46
2021/12/27 01:33:59;;;;;;;5.13;4.35;;;;;21.30;99130.00;;;;2082190;28;20281;-46
2021/12/27 01:35:00;;;;;;;4.07;3.67;;;;;21.30;99133.00;;;;2081598;28;20209;-46
2021/12/27 01:36:00;;;;;;;4.10;3.70;;;;;21.30;99132.00;;;;2078977;28;20713;-46
2021/12/27 01:37:01;;;;;;;5.13;4.30;;;;;21.30;99134.00;;;;2076109;28;20237;-46
2021/12/27 01:38:01;;;;;;;4.30;4.00;;;;;21.30;99134.00;;;;2077408;28;20236;-46
2021/12/27 01:39:03;;;;;;;3.87;3.57;;;;;21.30;99134.00;;;;2078231;28;20312;-46
2021/12/27 01:40:04;;;;;;;4.05;3.75;;;;;21.30;99137.00;;;;2078023;28;20256;-45
2021/12/27 01:41:05;;;;;;;4.15;3.72;;;;;21.30;99130.00;;;;2077119;28;21029;-46
2021/12/27 01:42:05;;;;;;;4.37;3.97;;;;;21.30;99136.00;;;;2077942;28;20209;-45
2021/12/27 01:43:14;;;;;;;4.43;4.03;;;;;21.30;99132.00;;;;2077711;28;20894;-46
2021/12/27 01:44:15;;;;;;;4.03;3.72;;;;;21.30;99129.00;;;;2078699;28;20205;-46
2021/12/27 01:45:15;;;;;;;4.03;3.70;;;;;21.30;99137.00;;;;2078328;28;20259;-46
2021/12/27 01:46:17;;;;;;;4.00;3.70;;;;;21.30;99131.00;;;;2076827;28;20205;-45
2021/12/27 01:47:19;;;;;;;3.90;3.60;;;;;21.30;99137.00;;;;2078120;28;20464;-46
2021/12/27 01:48:23;;;;;;;3.90;3.60;;;;;21.30;99132.00;;;;2077818;28;20362;-46
2021/12/27 01:49:23;;;;;;;4.20;3.90;;;;;21.30;99135.00;;;;2078894;28;20563;-45
2021/12/27 01:50:24;;;;;;;3.77;3.47;;;;;21.30;99122.00;;;;2078051;28;20401;-45
2021/12/27 01:51:26;;;;;;;3.20;2.90;;;;;21.20;99118.00;;;;2078497;28;20216;-46
2021/12/27 01:52:26;;;;;;;3.60;3.30;;;;;21.30;99125.00;;;;2084341;28;20220;-46
2021/12/27 01:53:29;;;;;;;3.77;3.47;;;;;21.20;99126.00;;;;2086208;28;20217;-45
2021/12/27 01:54:29;;;;;;;3.50;3.20;;;;;21.20;99123.00;;;;2086624;28;20213;-45
2021/12/27 01:55:29;;;;;;;4.03;3.73;;;;;21.20;99128.00;;;;2085988;28;20283;-45
2021/12/27 01:56:30;;;;;;;3.80;3.50;;;;;21.20;99127.00;;;;2085491;28;20217;-51
2021/12/27 01:57:30;;;;;;;4.00;3.70;;;;;21.20;99124.00;;;;2086490;28;20224;-47
2021/12/27 01:58:31;;;;;;;3.37;3.10;;;;;21.20;99123.00;;;;2085960;28;20220;-46
2021/12/27 01:59:31;;;;;;;2.90;2.70;;;;;21.20;99124.00;;;;2086879;28;20271;-46
2021/12/27 02:00:32;;;;;;;3.63;3.33;;;;;21.20;99129.00;;;;2086170;28;20225;-46
2021/12/27 02:01:32;;;;;;;3.60;3.30;;;;;21.20;99122.00;;;;2084130;28;20217;-46
2021/12/27 02:02:33;;;;;;;3.50;3.20;;;;;21.20;99120.00;;;;2086489;28;20217;-46
2021/12/27 02:03:33;;;;;;;3.50;3.20;;;;;21.20;99120.00;;;;2086969;28;20220;-46
2021/12/27 02:04:34;;;;;;;3.23;2.93;;;;;21.20;99127.00;;;;2086878;28;20302;-46
2021/12/27 02:05:34;;;;;;;3.47;3.17;;;;;21.20;99120.00;;;;2087101;28;20299;-46
2021/12/27 02:06:35;;;;;;;3.73;3.43;;;;;21.20;99113.00;;;;2086317;28;20212;-46
2021/12/27 02:07:35;;;;;;;3.87;3.50;;;;;21.20;99126.00;;;;2086192;28;20228;-46
2021/12/27 02:08:36;;;;;;;3.53;3.23;;;;;21.20;99122.00;;;;2085237;28;20689;-46
2021/12/27 02:09:47;;;;;;;3.70;3.40;;;;;21.10;99124.00;;;;2085933;28;20670;-46
2021/12/27 02:10:49;;;;;;;2.90;2.70;;;;;21.10;99119.00;;;;2085345;28;20251;-45
2021/12/27 02:11:50;;;;;;;3.35;3.05;;;;;21.10;99118.00;;;;2083940;28;20224;-46
2021/12/27 02:12:51;;;;;;;3.35;3.05;;;;;21.10;99123.00;;;;2086347;28;20208;-45
2021/12/27 02:13:51;;;;;;;3.40;3.20;;;;;21.10;99116.00;;;;2086521;28;20213;-46
2021/12/27 02:14:51;;;;;;;3.50;3.20;;;;;21.10;99120.00;;;;2086292;28;20213;-46
2021/12/27 02:15:52;;;;;;;3.17;2.90;;;;;21.10;99117.00;;;;2086351;28;20214;-45
2021/12/27 02:16:52;;;;;;;4.70;3.17;;;;;21.10;99109.00;;;;2085841;28;20213;-45
2021/12/27 02:17:53;;;;;;;3.17;2.87;;;;;21.10;99109.00;;;;2086091;28;20291;-46
2021/12/27 02:18:53;;;;;;;3.50;3.20;;;;;21.20;99104.00;;;;2077405;28;20213;-46
2021/12/27 02:19:53;;;;;;;3.03;2.83;;;;;21.10;99111.00;;;;2078027;28;20313;-46
2021/12/27 02:20:54;;;;;;;3.23;2.93;;;;;21.10;99117.00;;;;2085778;28;20219;-46
2021/12/27 02:21:57;;;;;;;4.07;3.67;;;;;21.10;99110.00;;;;2087014;28;20232;-46
2021/12/27 02:23:01;;;;;;;3.00;2.70;;;;;21.10;99103.00;;;;2086769;28;20209;-46
2021/12/27 02:24:03;;;;;;;3.00;2.80;;;;;21.10;99108.00;;;;2086587;28;20301;-45
2021/12/27 02:25:04;;;;;;;3.00;2.70;;;;;21.10;99109.00;;;;2086594;28;20220;-45
2021/12/27 02:26:05;;;;;;;3.28;2.95;;;;;21.10;99104.00;;;;2086783;28;20772;-45
2021/12/27 02:27:05;;;;;;;3.33;3.03;;;;;21.10;99098.00;;;;2086304;28;20217;-46
2021/12/27 02:28:07;;;;;;;2.90;2.70;;;;;21.10;99106.00;;;;2086643;28;20209;-46
2021/12/27 02:29:09;;;;;;;3.88;3.00;;;;;21.10;99097.00;;;;2086361;28;20681;-46
2021/12/27 02:30:11;;;;;;;3.47;2.90;;;;;21.10;99105.00;;;;2086770;28;20197;-46
2021/12/27 02:31:11;;;;;;;2.70;2.50;;;;;21.10;99104.00;;;;2085444;28;20212;-46
2021/12/27 02:32:11;;;;;;;4.30;2.60;;;;;21.10;99110.00;;;;2084200;28;20212;-46
2021/12/27 02:33:12;;;;;;;2.77;2.57;;;;;21.10;99104.00;;;;2086831;28;20512;-46
2021/12/27 02:34:12;;;;;;;3.27;2.77;;;;;21.10;99104.00;;;;2086662;28;20216;-45
2021/12/27 02:35:14;;;;;;;2.83;2.63;;;;;21.00;99103.00;;;;2086616;28;20259;-46
2021/12/27 02:36:15;;;;;;;2.78;2.58;;;;;21.00;99101.00;;;;2086684;28;20272;-46
2021/12/27 02:37:15;;;;;;;3.47;2.93;;;;;21.00;99099.00;;;;2085978;28;20259;-46
2021/12/27 02:38:18;;;;;;;2.97;2.77;;;;;21.10;99097.00;;;;2085728;28;20242;-46
2021/12/27 02:39:18;;;;;;;2.55;2.35;;;;;21.00;99104.00;;;;2086821;28;20213;-46
2021/12/27 02:40:19;;;;;;;2.57;2.33;;;;;21.00;99097.00;;;;2086322;28;20197;-45
2021/12/27 02:41:19;;;;;;;2.90;2.50;;;;;21.00;99100.00;;;;2086049;28;20201;-46
2021/12/27 02:42:20;;;;;;;2.70;2.50;;;;;21.00;99093.00;;;;2086962;28;20201;-46
2021/12/27 02:43:22;;;;;;;2.57;2.37;;;;;21.00;99097.00;;;;2086499;28;20204;-46
2021/12/27 02:44:22;;;;;;;2.97;2.78;;;;;21.00;99094.00;;;;2086712;28;20217;-45
2021/12/27 02:45:22;;;;;;;3.07;2.87;;;;;21.00;99100.00;;;;2086755;28;20290;-45
2021/12/27 02:46:23;;;;;;;2.63;2.40;;;;;21.00;99096.00;;;;2086469;28;20642;-45
2021/12/27 02:47:23;;;;;;;2.93;2.63;;;;;21.00;99101.00;;;;2086085;28;20771;-46
2021/12/27 02:48:25;;;;;;;2.47;2.27;;;;;21.00;99091.00;;;;2086224;28;20689;-45
2021/12/27 02:49:26;;;;;;;2.30;2.10;;;;;21.00;99088.00;;;;2086662;28;20217;-46
2021/12/27 02:50:26;;;;;;;2.63;2.43;;;;;21.00;99090.00;;;;2076863;28;20225;-46
2021/12/27 02:51:26;;;;;;;3.13;2.80;;;;;21.00;99090.00;;;;2077649;28;20229;-45
2021/12/27 02:52:27;;;;;;;3.20;2.90;;;;;21.00;99091.00;;;;2083473;28;20208;-45
2021/12/27 02:53:28;;;;;;;2.63;2.43;;;;;21.00;99082.00;;;;2086723;28;20213;-45
2021/12/27 02:54:28;;;;;;;2.60;2.40;;;;;21.00;99089.00;;;;2086794;28;20208;-46
2021/12/27 02:55:29;;;;;;;2.80;2.60;;;;;21.00;99085.00;;;;2086402;28;20208;-45
2021/12/27 02:56:30;;;;;;;2.63;2.43;;;;;21.00;99087.00;;;;2086510;28;20217;-46
2021/12/27 02:57:31;;;;;;;2.60;2.20;;;;;21.00;99093.00;;;;2076822;28;20220;-45
2021/12/27 02:58:31;;;;;;;2.70;2.50;;;;;21.00;99087.00;;;;2080132;28;20222;-46
2021/12/27 02:59:31;;;;;;;2.90;2.70;;;;;21.00;99083.00;;;;2080357;28;20236;-45
2021/12/27 03:00:54;;;;;;;2.47;2.27;;;;;21.00;99081.00;;;;2082279;28;20224;-45
2021/12/27 03:01:54;;;;;;;2.40;2.20;;;;;20.90;99081.00;;;;2086514;28;20216;-46
2021/12/27 03:02:55;;;;;;;3.00;2.70;;;;;20.90;99082.00;;;;2087743;28;20221;-46
2021/12/27 03:03:55;;;;;;;3.33;3.03;;;;;21.00;99078.00;;;;2088138;28;20224;-45
2021/12/27 03:04:56;;;;;;;2.80;2.60;;;;;21.00;99085.00;;;;2087897;28;20511;-46
2021/12/27 03:05:56;;;;;;;2.20;2.00;;;;;20.90;99081.00;;;;2087721;28;20595;-45
2021/12/27 03:06:56;;;;;;;2.30;2.10;;;;;20.90;99079.00;;;;2087463;28;20237;-46
2021/12/27 03:07:57;;;;;;;2.40;2.20;;;;;20.90;99080.00;;;;2077183;28;20220;-45
2021/12/27 03:08:58;;;;;;;2.60;2.40;;;;;20.90;99078.00;;;;2087082;28;20216;-46
2021/12/27 03:09:58;;;;;;;2.50;2.30;;;;;20.90;99077.00;;;;2087297;28;20250;-46
2021/12/27 03:10:59;;;;;;;2.47;2.27;;;;;20.90;99066.00;;;;2086956;28;20217;-46
2021/12/27 03:11:59;;;;;;;2.37;2.17;;;;;20.90;99075.00;;;;2085842;28;20459;-46
2021/12/27 03:13:01;;;;;;;2.20;2.00;;;;;20.90;99072.00;;;;2088145;28;20212;-45
2021/12/27 03:14:01;;;;;;;2.47;2.28;;;;;20.90;99077.00;;;;2088360;28;20739;-45
2021/12/27 03:15:01;;;;;;;2.33;2.13;;;;;20.90;99067.00;;;;2088154;28;20346;-46
2021/12/27 03:16:05;;;;;;;2.50;2.30;;;;;20.90;99073.00;;;;2088131;28;20224;-45
2021/12/27 03:17:05;;;;;;;2.40;2.20;;;;;20.90;99074.00;;;;2087611;28;20256;-46
2021/12/27 03:18:06;;;;;;;2.67;2.47;;;;;20.90;99063.00;;;;2088229;28;20212;-45
2021/12/27 03:19:06;;;;;;;2.10;2.00;;;;;20.90;99073.00;;;;2088117;28;20213;-46
2021/12/27 03:20:07;;;;;;;2.47;2.10;;;;;20.90;99059.00;;;;2088200;28;20213;-46
2021/12/27 03:21:07;;;;;;;2.50;2.30;;;;;20.90;99076.00;;;;2078484;28;20670;-46
2021/12/27 03:22:08;;;;;;;2.53;2.17;;;;;20.90;99076.00;;;;2078930;28;20213;-46
2021/12/27 03:23:08;;;;;;;2.50;2.30;;;;;20.90;99059.00;;;;2088468;28;20262;-45
2021/12/27 03:24:08;;;;;;;2.43;2.23;;;;;20.90;99071.00;;;;2082366;28;20213;-45
2021/12/27 03:25:11;;;;;;;2.50;2.30;;;;;20.90;99065.00;;;;2080123;28;20285;-45
2021/12/27 03:26:11;;;;;;;1.90;1.80;;;;;20.90;99064.00;;;;2080169;28;20221;-45
2021/12/27 03:27:12;;;;;;;4.30;2.20;;;;;20.90;99059.00;;;;2076345;28;20601;-45
2021/12/27 03:28:12;;;;;;;2.70;2.50;;;;;20.90;99064.00;;;;2079481;28;20220;-45
2021/12/27 03:29:12;;;;;;;1.97;1.87;;;;;20.90;99067.00;;;;2079422;28;21125;-46
2021/12/27 03:30:18;;;;;;;2.13;1.93;;;;;20.90;99068.00;;;;2079529;28;20686;-45
2021/12/27 03:31:19;;;;;;;2.55;2.35;;;;;20.90;99063.00;;;;2084477;28;20309;-45
2021/12/27 03:32:21;;;;;;;2.63;2.42;;;;;20.80;99058.00;;;;2085183;28;20696;-46
2021/12/27 03:33:22;;;;;;;2.25;2.05;;;;;20.80;99059.00;;;;2088171;28;20485;-46
2021/12/27 03:34:22;;;;;;;2.38;2.17;;;;;20.80;99064.00;;;;2087884;28;20243;-46
2021/12/27 03:35:28;;;;;;;1.90;1.77;;;;;20.90;99075.00;;;;2088181;28;20213;-46
2021/12/27 03:36:29;;;;;;;2.00;1.90;;;;;20.70;99068.00;;;;2087801;28;20217;-46
2021/12/27 03:37:29;;;;;;;2.20;2.00;;;;;20.80;99067.00;;;;2087094;28;20221;-46
2021/12/27 03:38:33;;;;;;;2.50;2.30;;;;;20.80;99065.00;;;;2086903;28;20228;-45
2021/12/27 03:39:33;;;;;;;2.70;2.00;;;;;20.80;99069.00;;;;2087238;28;20244;-46
2021/12/27 03:40:34;;;;;;;2.10;1.90;;;;;20.80;99067.00;;;;2086644;28;20818;-45
2021/12/27 03:41:34;;;;;;;2.30;2.10;;;;;20.70;99062.00;;;;2088116;28;20576;-46
2021/12/27 03:42:35;;;;;;;2.17;1.97;;;;;20.80;99067.00;;;;2087467;28;20732;-45
2021/12/27 03:43:35;;;;;;;2.53;2.33;;;;;20.80;99066.00;;;;2087011;28;20638;-45
2021/12/27 03:44:35;;;;;;;2.10;1.90;;;;;20.80;99066.00;;;;2087576;28;20712;-45
2021/12/27 03:45:38;;;;;;;2.10;1.90;;;;;20.80;99059.00;;;;2087449;28;20205;-45
2021/12/27 03:46:38;;;;;;;2.35;2.00;;;;;20.80;99065.00;;;;2087066;28;20220;-45
2021/12/27 03:47:38;;;;;;;2.37;2.23;;;;;20.80;99062.00;;;;2086701;28;20212;-45
2021/12/27 03:48:39;;;;;;;2.00;1.90;;;;;20.80;99056.00;;;;2087674;28;20228;-46
2021/12/27 03:49:39;;;;;;;2.70;2.50;;;;;20.80;99060.00;;;;2087487;28;20290;-46
2021/12/27 03:50:39;;;;;;;2.37;2.17;;;;;20.80;99063.00;;;;2086563;28;20216;-46
2021/12/27 03:51:43;;;;;;;2.33;2.13;;;;;20.70;99056.00;;;;2087205;28;20224;-46
2021/12/27 03:52:43;;;;;;;2.17;2.08;;;;;20.80;99057.00;;;;2085560;28;20224;-45
2021/12/27 03:53:44;;;;;;;2.17;1.97;;;;;20.80;99059.00;;;;2087692;28;20643;-46
2021/12/27 03:54:44;;;;;;;2.03;1.93;;;;;20.80;99055.00;;;;2087561;28;20677;-45
2021/12/27 03:55:44;;;;;;;1.87;1.77;;;;;20.80;99051.00;;;;2087628;28;20209;-45
2021/12/27 03:56:45;;;;;;;2.40;2.20;;;;;20.80;99051.00;;;;2087181;28;20243;-46
2021/12/27 03:57:52;;;;;;;2.17;1.97;;;;;20.80;99052.00;;;;2087464;28;20212;-45
2021/12/27 03:59:18;;;;;;;2.45;2.25;;;;;20.70;99048.00;;;;2087552;28;20212;-45
2021/12/27 04:01:23;;;;;;;1.95;1.85;;;;;20.80;99055.00;;;;2086560;28;20588;-46
2021/12/27 04:02:23;;;;;;;2.15;1.95;;;;;20.80;99049.00;;;;2087407;28;20725;-45
2021/12/27 04:03:24;;;;;;;2.93;1.90;;;;;20.70;99058.00;;;;2087543;28;20300;-45
2021/12/27 04:04:24;;;;;;;2.50;2.10;;;;;20.70;99055.00;;;;2087177;28;20216;-46
2021/12/27 04:05:24;;;;;;;1.87;1.73;;;;;20.70;99048.00;;;;2087315;28;20575;-46
2021/12/27 04:06:26;;;;;;;2.53;2.20;;;;;20.70;99049.00;;;;2086597;28;20593;-45
2021/12/27 04:07:28;;;;;;;2.22;2.10;;;;;20.70;99058.00;;;;2082861;28;20303;-45
2021/12/27 04:08:28;;;;;;;2.40;2.20;;;;;20.70;99053.00;;;;2086702;28;20269;-46
2021/12/27 04:09:29;;;;;;;2.10;2.00;;;;;20.70;99050.00;;;;2087691;28;20266;-45
2021/12/27 04:10:29;;;;;;;2.20;2.00;;;;;20.70;99047.00;;;;2086787;28;20267;-46
2021/12/27 04:11:31;;;;;;;1.73;1.63;;;;;20.70;99051.00;;;;2087234;28;20459;-46
2021/12/27 04:12:31;;;;;;;2.10;1.95;;;;;20.70;99048.00;;;;2085912;28;21096;-46
2021/12/27 04:13:32;;;;;;;2.30;2.10;;;;;20.70;99040.00;;;;2087619;28;20221;-47
2021/12/27 04:14:32;;;;;;;2.20;2.00;;;;;20.70;99037.00;;;;2087486;28;20291;-45
2021/12/27 04:15:33;;;;;;;2.23;1.80;;;;;20.70;99041.00;;;;2086936;28;20300;-46
2021/12/27 04:16:33;;;;;;;2.00;1.80;;;;;20.70;99048.00;;;;2086633;28;20217;-46
2021/12/27 04:17:33;;;;;;;2.30;2.10;;;;;20.70;99049.00;;;;2081164;28;20599;-45
2021/12/27 04:18:34;;;;;;;2.13;2.03;;;;;20.70;99043.00;;;;2087176;28;20260;-46
2021/12/27 04:19:34;;;;;;;1.93;1.73;;;;;20.70;99049.00;;;;2087467;28;20300;-46
2021/12/27 04:20:34;;;;;;;1.90;1.80;;;;;20.70;99042.00;;;;2086422;28;20274;-46
2021/12/27 04:21:35;;;;;;;2.27;2.07;;;;;20.70;99040.00;;;;2087414;28;20209;-46
2021/12/27 04:22:35;;;;;;;2.00;1.83;;;;;20.70;99039.00;;;;2084577;28;20217;-45
2021/12/27 04:23:35;;;;;;;2.13;1.93;;;;;20.70;99040.00;;;;2085323;28;20232;-45
2021/12/27 04:24:36;;;;;;;3.80;2.47;;;;;20.70;99033.00;;;;2086933;28;20220;-45
2021/12/27 04:25:36;;;;;;;1.97;1.83;;;;;20.70;99035.00;;;;2087485;28;20220;-46
2021/12/27 04:26:36;;;;;;;1.97;1.87;;;;;20.70;99036.00;;;;2084484;28;20227;-45
2021/12/27 04:27:37;;;;;;;3.20;2.00;;;;;20.70;99037.00;;;;2087429;28;20213;-46
2021/12/27 04:28:37;;;;;;;2.43;2.13;;;;;20.70;99036.00;;;;2087756;28;20217;-46
2021/12/27 04:29:37;;;;;;;2.70;1.97;;;;;20.70;99043.00;;;;2086802;28;20240;-46
2021/12/27 04:30:38;;;;;;;2.17;1.97;;;;;20.60;99041.00;;;;2086082;28;20224;-45
2021/12/27 04:31:38;;;;;;;2.53;2.33;;;;;20.70;99038.00;;;;2087662;28;20209;-45
2021/12/27 04:32:38;;;;;;;1.97;1.87;;;;;20.60;99040.00;;;;2087377;28;20228;-46
2021/12/27 04:33:39;;;;;;;2.13;1.80;;;;;20.60;99034.00;;;;2087715;28;20217;-46
2021/12/27 04:34:39;;;;;;;2.20;2.07;;;;;20.60;99039.00;;;;2087364;28;20296;-46
2021/12/27 04:35:39;;;;;;;2.20;2.00;;;;;20.70;99037.00;;;;2087822;28;20220;-45
2021/12/27 04:36:40;;;;;;;2.20;2.10;;;;;20.70;99039.00;;;;2087827;28;20229;-46
2021/12/27 04:37:40;;;;;;;1.90;1.80;;;;;20.70;99036.00;;;;2086025;28;20221;-45
2021/12/27 04:38:42;;;;;;;2.03;1.80;;;;;20.70;99049.00;;;;2086833;28;20240;-46
2021/12/27 04:39:43;;;;;;;1.65;1.55;;;;;20.60;99037.00;;;;2086224;28;20247;-45
2021/12/27 04:40:45;;;;;;;1.97;1.77;;;;;20.60;99031.00;;;;2085329;28;20224;-45
2021/12/27 04:41:46;;;;;;;1.70;1.60;;;;;20.60;99039.00;;;;2087161;28;20217;-45
2021/12/27 04:42:49;;;;;;;2.40;2.20;;;;;20.60;99024.00;;;;2087183;28;20240;-46
2021/12/27 04:43:50;;;;;;;1.90;1.80;;;;;20.60;99032.00;;;;2087020;28;20220;-45
2021/12/27 04:44:50;;;;;;;1.90;1.70;;;;;20.70;99029.00;;;;2086791;28;20263;-45
2021/12/27 04:45:51;;;;;;;2.40;2.20;;;;;20.60;99023.00;;;;2086898;28;20459;-46
2021/12/27 04:46:51;;;;;;;1.73;1.63;;;;;20.60;99025.00;;;;2087174;28;20256;-46
2021/12/27 04:47:52;;;;;;;1.50;1.40;;;;;20.60;99022.00;;;;2079897;28;20464;-46
2021/12/27 04:48:52;;;;;;;1.93;1.77;;;;;20.60;99018.00;;;;2087118;28;20227;-45
2021/12/27 04:49:53;;;;;;;1.70;1.60;;;;;20.60;99017.00;;;;2087007;28;20217;-46
2021/12/27 04:50:53;;;;;;;1.57;1.47;;;;;20.60;99017.00;;;;2086309;28;20573;-45
2021/12/27 04:51:54;;;;;;;1.50;1.40;;;;;20.60;99014.00;;;;2087294;28;20451;-45
2021/12/27 04:52:54;;;;;;;2.27;1.87;;;;;20.60;99013.00;;;;2085583;28;20212;-45
2021/12/27 04:53:54;;;;;;;1.80;1.70;;;;;20.60;99015.00;;;;2087446;28;20567;-45
2021/12/27 04:54:55;;;;;;;2.10;1.90;;;;;20.60;99010.00;;;;2087559;28;20270;-46
2021/12/27 04:55:55;;;;;;;2.03;1.93;;;;;20.60;99011.00;;;;2087326;28;20301;-45
2021/12/27 04:56:55;;;;;;;2.23;2.03;;;;;20.60;99004.00;;;;2087406;28;20219;-46
2021/12/27 04:57:56;;;;;;;1.70;1.60;;;;;20.60;99005.00;;;;2084185;28;20205;-45
2021/12/27 04:58:56;;;;;;;2.10;1.93;;;;;20.60;99009.00;;;;2087196;28;20213;-45
2021/12/27 04:59:56;;;;;;;1.90;1.70;;;;;20.60;99002.00;;;;2087096;28;20209;-45
2021/12/27 05:00:57;;;;;;;1.70;1.60;;;;;20.60;99004.00;;;;2086274;28;20209;-45
2021/12/27 05:01:57;;;;;;;2.00;1.87;;;;;20.60;98989.00;;;;2086426;28;20217;-45
2021/12/27 05:02:58;;;;;;;1.77;1.67;;;;;20.60;99001.00;;;;2086620;28;20213;-45
2021/12/27 05:03:59;;;;;;;1.65;1.55;;;;;20.60;99000.00;;;;2087321;28;20873;-46
2021/12/27 05:04:59;;;;;;;2.13;1.97;;;;;20.60;99011.00;;;;2087506;28;20216;-45
2021/12/27 05:05:59;;;;;;;2.30;2.10;;;;;20.60;99004.00;;;;2087412;28;20221;-45
2021/12/27 05:07:00;;;;;;;2.60;1.90;;;;;20.60;99000.00;;;;2086896;28;20274;-46
2021/12/27 05:08:00;;;;;;;1.83;1.73;;;;;20.50;98997.00;;;;2086745;28;20224;-45
2021/12/27 05:09:01;;;;;;;1.90;1.80;;;;;20.60;99002.00;;;;2086997;28;20205;-46
2021/12/27 05:10:01;;;;;;;2.20;2.00;;;;;20.60;99001.00;;;;2085867;28;20282;-45